createdAt,value
2023-09-13T00:01:37.306Z,26.1
2023-09-13T00:11:37.236Z,26
2023-09-13T00:21:47.187Z,26.1
2023-09-13T00:31:57.248Z,25.9
2023-09-13T00:42:07.132Z,25.9
2023-09-13T00:52:07.250Z,25.9
2023-09-13T01:02:07.284Z,25.8
2023-09-13T01:12:17.284Z,25.8
2023-09-13T01:22:17.332Z,25.6
2023-09-13T01:32:27.245Z,24.9
2023-09-13T01:42:37.152Z,24.8
2023-09-13T01:52:47.154Z,24.9
2023-09-13T02:02:47.532Z,25
2023-09-13T02:12:47.462Z,24.9
2023-09-13T02:22:47.624Z,24.8
2023-09-13T02:32:47.673Z,24.7
2023-09-13T02:42:57.613Z,24.7
2023-09-13T02:53:07.584Z,24.9
2023-09-13T03:03:07.704Z,24.7
2023-09-13T03:13:07.708Z,24.7
2023-09-13T03:23:07.819Z,24.6
2023-09-13T03:33:07.863Z,24.7
2023-09-13T03:43:07.867Z,24.2
2023-09-13T03:53:07.887Z,24.2
2023-09-13T04:03:08.551Z,24
2023-09-13T04:13:18.503Z,24.1
2023-09-13T04:23:18.446Z,24.2
2023-09-13T04:33:28.259Z,24.1
2023-09-13T04:43:37.707Z,24.4
2023-09-13T04:53:47.303Z,24.4
2023-09-13T05:03:57.268Z,24.2
2023-09-13T05:13:57.065Z,24.2
2023-09-13T05:24:08.147Z,24.5
2023-09-13T05:34:08.335Z,24
2023-09-13T05:44:09.291Z,23.9
2023-09-13T05:54:19.514Z,24
2023-09-13T06:04:20.343Z,23.9
2023-09-13T06:14:20.583Z,24
2023-09-13T06:24:23.636Z,24.1
2023-09-13T06:34:27.462Z,24.2
2023-09-13T06:44:44.877Z,24.4
2023-09-13T06:54:46.393Z,24.2
2023-09-13T07:15:03.627Z,24.5
2023-09-13T07:25:03.788Z,24.5
2023-09-13T07:35:13.806Z,24.3
2023-09-13T07:45:15.072Z,25.1
2023-09-13T07:55:15.076Z,26.5
2023-09-13T08:05:15.563Z,27.4
2023-09-13T08:15:17.216Z,28.1
2023-09-13T08:25:17.674Z,27.8
2023-09-13T08:35:27.184Z,28
2023-09-13T08:45:29.178Z,28.3
2023-09-13T08:55:29.382Z,28.5
2023-09-13T09:05:29.413Z,28.5
2023-09-13T09:15:29.917Z,29.5
2023-09-13T09:25:30.455Z,29.6
2023-09-13T09:35:34.194Z,30.3
2023-09-13T09:45:36.046Z,30.3
2023-09-13T09:55:36.135Z,30.3
2023-09-13T10:05:45.967Z,30.7
2023-09-13T10:15:48.498Z,31
2023-09-13T10:25:48.654Z,30.7
2023-09-13T10:35:49.592Z,30.8
2023-09-13T10:45:49.965Z,31.6
2023-09-13T10:55:50.455Z,31.5
2023-09-13T11:05:52.282Z,31.1
2023-09-13T11:15:58.981Z,30.9
2023-09-13T11:26:03.188Z,30.3
2023-09-13T11:36:00.737Z,30.4
2023-09-13T11:46:01.241Z,30.7
2023-09-13T11:56:12.356Z,30.6
2023-09-13T12:16:20.516Z,30.2
2023-09-13T12:26:20.680Z,30.4
2023-09-13T12:36:20.993Z,30.2
2023-09-13T12:46:32.157Z,29.9
2023-09-13T12:56:32.391Z,30.4
2023-09-13T13:06:36.640Z,30
2023-09-13T13:16:44.619Z,30
2023-09-13T13:26:45.781Z,30.2
2023-09-13T13:36:46.153Z,30
2023-09-13T13:46:47.308Z,30.3
2023-09-13T13:56:50.098Z,29.7
2023-09-13T14:06:51.631Z,29.6
2023-09-13T14:16:51.816Z,29.7
2023-09-13T14:26:51.836Z,29.8
2023-09-13T14:36:52.932Z,29.9
2023-09-13T14:46:52.992Z,29.8
2023-09-13T14:56:53.928Z,29.9
2023-09-13T15:06:54.559Z,29.8
2023-09-13T15:16:57.234Z,29.6
2023-09-13T15:27:01.205Z,29.7
2023-09-13T15:37:02.273Z,29.6
2023-09-13T15:47:02.648Z,29.1
2023-09-13T15:57:02.701Z,29.4
2023-09-13T16:07:02.678Z,29
2023-09-13T16:17:06.167Z,29
2023-09-13T16:27:06.236Z,28.4
2023-09-13T16:37:06.822Z,28.3
2023-09-13T16:47:11.837Z,28.4
2023-09-13T16:57:12.647Z,28.3
2023-09-13T17:07:15.536Z,28.3
2023-09-13T17:17:15.988Z,27.7
2023-09-13T17:27:17.384Z,27.5
2023-09-13T17:37:19.076Z,27.3
2023-09-13T17:47:18.997Z,27.5
2023-09-13T17:57:21.285Z,27.3
2023-09-13T18:07:23.345Z,27.3
2023-09-13T18:17:37.801Z,27.2
2023-09-13T18:27:41.129Z,27.3
2023-09-13T18:37:42.588Z,27.6
2023-09-13T18:47:43.145Z,27.3
2023-09-13T18:57:44.858Z,27.4
2023-09-13T19:07:45.018Z,27.4
2023-09-13T19:17:48.236Z,27.4
2023-09-13T19:27:52.871Z,27.4
2023-09-13T19:37:56.773Z,27.4
2023-09-13T19:47:57.225Z,27.4
2023-09-13T19:57:59.598Z,27
2023-09-13T20:07:59.847Z,26.7
2023-09-13T20:18:00.012Z,26.5
2023-09-13T20:28:02.060Z,26.3
2023-09-13T20:38:00.222Z,26
2023-09-13T20:48:02.394Z,26.1
2023-09-13T20:58:02.644Z,25.9
2023-09-13T21:08:02.687Z,25.6
2023-09-13T21:18:03.495Z,25.7
2023-09-13T21:28:03.807Z,25.6
2023-09-13T21:38:05.135Z,25.4
2023-09-13T21:48:05.324Z,25.3
2023-09-13T21:58:05.619Z,25.1
2023-09-13T22:08:06.532Z,25
2023-09-13T22:18:16.594Z,24.8
2023-09-13T22:28:16.672Z,24.9
2023-09-13T22:38:16.873Z,24.9
2023-09-13T22:48:26.852Z,25
2023-09-13T22:58:27.038Z,24.8
2023-09-13T23:08:27.034Z,24.6
2023-09-13T23:18:37.112Z,24.5
2023-09-13T23:28:46.720Z,24.4
2023-09-13T23:38:46.842Z,24.1
2023-09-13T23:48:46.919Z,24.2
2023-09-13T23:58:46.942Z,24.1
